Terminal Aerodrome Forecast
Issued by NWS Sterling, VA

Current Version | Previous Version | Text Only | Print | Product List | Glossary Off
Versions: 1 2 3 4 5 6 7 8 9 10 11 12 13 14 15 16 17 18 19 20 21 22 23 24

000
FTUS41 KLWX 010540
TAFDCA
TAF
KDCA 010540Z 0106/0206 06010KT P6SM VCSH SCT030 OVC080
     FM010900 03012KT P6SM BKN025
     FM011100 03010KT P6SM -SHRA BKN035
     FM011400 05008KT P6SM BKN040
     FM020200 VRB04KT P6SM BKN050=

USA.gov is the U.S. government's official web portal to all federal, state and local government web resources and services.